Terminal Aerodrome Forecast
Issued by NWS

Home | Current Version | Previous Version | Graphics & Text | Print | Product List | Glossary On
Versions: 1 2 3 4 5 6 7 8 9 10 11 12 13 14 15 16 17 18 19 20 21 22 23 24 25 26 27
000
FTUS43 KGRB 211300 AAA
TAFATW
TAF AMD
KATW 211354Z 2114/2212 13005KT P6SM BKN016 BKN040
      TEMPO 2114/2116 6SM -SHRA SCT016 BKN020
     FM211600 10006KT P6SM VCSH SCT020 BKN100
      TEMPO 2116/2120 3SM -TSRA BKN018CB
     FM212000 10006KT P6SM -SHRA BKN035 BKN100
      TEMPO 2122/2202 1SM TSRA BKN020CB
     FM220500 VRB03KT 3SM BR BKN008 BKN035=

USA.gov is the U.S. government's official web portal to all federal, state and local government web resources and services.